Time;durP1;ratioP1;P1;durP2;ratioP2;P2;SDS_P1;SDS_P2;PMS_P1;PMS_P2;Temp;Humidity;BMP_temperature;BMP_pressure;BME280_temperature;BME280_humidity;BME280_pressure;Samples;Min_cycle;Max_cycle;Signal;HPM_P1;HPM_P2
2022/05/07 00:00:22;;;;;;;4.90;2.83;;;14.00;95.90;;;;;;4870832;29;20034;-42
2022/05/07 00:02:48;;;;;;;5.82;3.38;;;13.90;96.00;;;;;;4870945;29;20401;-42
2022/05/07 00:05:14;;;;;;;4.65;2.58;;;13.90;96.00;;;;;;4870880;29;20489;-45
2022/05/07 00:07:39;;;;;;;4.88;2.85;;;13.90;96.00;;;;;;4870301;29;20040;-43
2022/05/07 00:10:06;;;;;;;6.25;2.42;;;13.90;96.10;;;;;;4856697;29;20044;-43
2022/05/07 00:12:31;;;;;;;3.90;2.53;;;13.80;96.40;;;;;;4856383;29;20120;-43
2022/05/07 00:14:57;;;;;;;4.30;2.95;;;13.80;96.50;;;;;;4870942;29;20109;-41
2022/05/07 00:20:09;;;;;;;4.60;2.60;;;13.70;96.90;;;;;;4862806;29;20096;-43
2022/05/07 00:22:34;;;;;;;5.95;3.08;;;13.70;97.00;;;;;;4862686;29;20404;-41
2022/05/07 00:25:00;;;;;;;7.57;3.83;;;13.60;97.00;;;;;;4876987;29;20119;-42
2022/05/07 00:27:25;;;;;;;3.40;2.88;;;13.60;97.30;;;;;;4876927;29;20083;-43
2022/05/07 00:29:51;;;;;;;5.20;2.97;;;13.60;97.50;;;;;;4877177;29;20312;-42
2022/05/07 00:32:17;;;;;;;5.57;3.00;;;13.50;97.50;;;;;;4863309;29;20041;-43
2022/05/07 00:34:43;;;;;;;6.18;3.20;;;13.40;97.60;;;;;;4877025;29;20030;-43
2022/05/07 00:37:08;;;;;;;7.63;3.40;;;13.40;97.90;;;;;;4876807;29;20032;-43
2022/05/07 00:39:34;;;;;;;4.63;3.17;;;13.30;98.00;;;;;;4876882;29;20047;-41
2022/05/07 00:42:07;;;;;;;4.03;2.83;;;13.20;98.10;;;;;;4876587;29;20035;-41
2022/05/07 00:44:33;;;;;;;2.80;2.50;;;13.20;98.10;;;;;;4876784;29;20113;-45
2022/05/07 00:47:20;;;;;;;4.40;3.00;;;13.20;98.10;;;;;;4876736;29;20546;-42
2022/05/07 00:49:47;;;;;;;7.57;3.70;;;13.20;98.00;;;;;;4876757;29;20041;-42
2022/05/07 00:52:18;;;;;;;7.57;3.10;;;13.20;98.20;;;;;;4876805;29;20040;-44
2022/05/07 00:54:47;;;;;;;4.00;3.00;;;13.20;98.20;;;;;;4876368;29;20025;-42
2022/05/07 00:57:14;;;;;;;8.38;2.90;;;13.20;98.30;;;;;;4875002;29;20501;-42
2022/05/07 00:59:40;;;;;;;4.68;2.70;;;13.20;98.30;;;;;;4860490;29;20041;-42
2022/05/07 01:02:06;;;;;;;3.63;2.85;;;13.20;98.30;;;;;;4860395;29;20037;-43
2022/05/07 01:04:32;;;;;;;4.15;3.10;;;13.20;98.30;;;;;;4860456;29;20041;-42
2022/05/07 01:06:57;;;;;;;13.45;2.80;;;13.20;98.40;;;;;;4844884;29;20025;-42
2022/05/07 01:09:24;;;;;;;5.97;3.35;;;13.20;98.50;;;;;;4909786;23;20142;-46
2022/05/07 01:11:51;;;;;;;59.50;37.83;;;13.20;98.70;;;;;;4972303;28;20077;-47
2022/05/07 01:14:16;;;;;;;26.38;16.70;;;13.20;98.70;;;;;;4973881;28;20555;-47
2022/05/07 01:16:42;;;;;;;4.90;3.20;;;13.20;98.60;;;;;;4973461;28;20122;-43
2022/05/07 01:19:07;;;;;;;4.55;3.47;;;13.10;98.90;;;;;;4973865;28;20027;-45
2022/05/07 01:21:33;;;;;;;7.55;3.95;;;13.00;99.10;;;;;;4974005;28;20031;-44
2022/05/07 01:23:59;;;;;;;7.20;2.95;;;13.00;99.30;;;;;;4974136;28;20038;-43
2022/05/07 01:26:26;;;;;;;4.93;3.28;;;13.00;99.40;;;;;;4959553;28;20384;-49
2022/05/07 01:29:00;;;;;;;3.72;3.10;;;13.00;99.50;;;;;;4971446;28;20023;-46
2022/05/07 01:31:29;;;;;;;4.30;3.20;;;13.10;99.90;;;;;;4971076;28;20028;-44
2022/05/07 01:33:55;;;;;;;6.30;3.65;;;13.10;99.80;;;;;;4970893;28;20031;-45
2022/05/07 01:36:20;;;;;;;6.22;2.90;;;13.10;99.60;;;;;;4970871;28;20296;-44
2022/05/07 01:38:46;;;;;;;5.88;3.00;;;13.10;99.60;;;;;;4970582;28;20403;-45
2022/05/07 01:41:12;;;;;;;3.92;3.17;;;13.00;99.90;;;;;;4970565;28;20118;-44
2022/05/07 01:43:38;;;;;;;9.00;3.78;;;12.90;99.90;;;;;;4970924;28;20035;-44
2022/05/07 01:48:09;;;;;;;5.28;3.25;;;12.90;99.90;;;;;;4970645;28;20033;-46
2022/05/07 01:48:49;;;;;;;;;;;12.70;99.90;;;;;;4955936;28;20086;-47
2022/05/07 01:51:15;;;;;;;;;;;12.60;99.90;;;;;;4956690;28;19914;-43
2022/05/07 01:53:40;;;;;;;5.10;3.40;;;12.50;99.90;;;;;;4970630;28;20374;-50
2022/05/07 01:56:06;;;;;;;5.93;4.07;;;12.50;99.90;;;;;;4970458;28;20034;-46
2022/05/07 01:58:31;;;;;;;4.32;3.65;;;12.40;99.90;;;;;;4955508;28;20542;-44
2022/05/07 02:00:57;;;;;;;3.95;3.50;;;12.40;99.90;;;;;;4954208;28;20118;-44
2022/05/07 02:03:23;;;;;;;8.70;4.20;;;12.30;99.90;;;;;;4955803;28;20050;-45
2022/05/07 02:05:48;;;;;;;8.27;4.20;;;12.30;99.90;;;;;;4970296;28;20023;-44
2022/05/07 02:08:14;;;;;;;4.30;3.92;;;12.20;99.90;;;;;;4954021;29;20431;-50
2022/05/07 02:10:40;;;;;;;5.93;4.28;;;12.10;99.90;;;;;;4969980;28;20032;-40
2022/05/07 02:13:05;;;;;;;6.13;3.95;;;12.10;99.90;;;;;;4970413;28;20514;-46
2022/05/07 02:15:31;;;;;;;6.25;3.97;;;12.10;99.90;;;;;;4970252;28;20475;-50
2022/05/07 02:17:56;;;;;;;8.10;3.90;;;12.00;99.90;;;;;;4969888;28;20057;-44
2022/05/07 02:20:23;;;;;;;6.43;4.18;;;12.00;99.90;;;;;;4970145;28;20055;-49
2022/05/07 02:22:52;;;;;;;5.07;3.72;;;12.00;99.90;;;;;;4970029;28;20031;-46
2022/05/07 02:25:18;;;;;;;8.60;4.25;;;12.00;99.90;;;;;;4970207;28;20038;-45
2022/05/07 02:27:43;;;;;;;10.10;4.97;;;12.00;99.90;;;;;;4969799;28;20027;-47
2022/05/07 02:30:09;;;;;;;6.65;4.38;;;12.00;99.90;;;;;;4971026;28;20167;-48
2022/05/07 02:32:35;;;;;;;6.07;4.10;;;12.00;99.90;;;;;;4970141;28;20034;-42
2022/05/07 02:35:00;;;;;;;8.82;4.38;;;12.00;99.90;;;;;;4970217;28;20019;-44
2022/05/07 02:37:26;;;;;;;7.03;4.90;;;12.00;99.90;;;;;;4969791;28;20027;-45
2022/05/07 02:39:53;;;;;;;8.20;4.35;;;11.90;99.90;;;;;;4970151;28;20513;-48
2022/05/07 02:42:36;;;;;;;6.50;4.43;;;11.80;99.90;;;;;;4955486;28;20031;-44
2022/05/07 02:45:12;;;;;;;4.88;4.40;;;11.80;99.90;;;;;;4955538;28;20027;-47
2022/05/07 02:47:40;;;;;;;7.32;4.60;;;11.80;99.90;;;;;;4955044;28;20103;-44
2022/05/07 02:50:08;;;;;;;6.57;4.60;;;11.70;99.90;;;;;;4970072;28;20035;-45
2022/05/07 02:52:35;;;;;;;7.82;4.38;;;11.60;99.90;;;;;;4969768;28;20027;-44
2022/05/07 02:55:02;;;;;;;11.93;4.65;;;11.60;99.90;;;;;;4953854;28;20031;-45
2022/05/07 02:57:28;;;;;;;7.35;4.43;;;11.60;99.90;;;;;;4969667;28;20058;-44
2022/05/07 02:59:54;;;;;;;5.75;4.32;;;11.50;99.90;;;;;;4969374;28;20058;-45
2022/05/07 03:02:20;;;;;;;7.47;4.00;;;11.50;99.90;;;;;;4969773;28;20038;-44
2022/05/07 03:04:47;;;;;;;5.97;4.47;;;11.50;99.90;;;;;;4955103;28;20027;-44
2022/05/07 03:07:13;;;;;;;6.30;4.40;;;11.50;99.90;;;;;;4969327;28;20027;-44
2022/05/07 03:09:39;;;;;;;4.13;3.72;;;11.50;99.90;;;;;;4954589;28;20050;-47
2022/05/07 03:12:05;;;;;;;5.78;4.93;;;11.50;99.90;;;;;;4970030;28;20035;-44
2022/05/07 03:14:31;;;;;;;5.05;4.50;;;11.50;99.90;;;;;;4969424;28;20114;-43
2022/05/07 03:16:56;;;;;;;10.55;4.43;;;11.50;99.90;;;;;;4969126;28;20074;-44
2022/05/07 03:19:22;;;;;;;5.03;4.40;;;11.40;99.90;;;;;;4970195;28;20479;-46
2022/05/07 03:21:47;;;;;;;6.22;4.40;;;11.30;99.90;;;;;;4969278;28;20020;-46
2022/05/07 03:24:13;;;;;;;4.20;3.80;;;11.40;99.90;;;;;;4953204;28;20027;-42
2022/05/07 03:26:39;;;;;;;5.80;3.72;;;11.40;99.90;;;;;;4968890;28;20034;-44
2022/05/07 03:29:04;;;;;;;4.60;4.10;;;11.40;99.90;;;;;;4954228;28;20398;-45
2022/05/07 03:31:30;;;;;;;6.47;4.20;;;11.40;99.90;;;;;;4969190;28;20023;-48
2022/05/07 03:33:56;;;;;;;9.50;3.85;;;11.40;99.90;;;;;;4968951;28;20441;-44
2022/05/07 03:36:22;;;;;;;6.68;4.38;;;11.30;99.90;;;;;;4970102;28;20042;-45
2022/05/07 03:38:47;;;;;;;5.43;4.05;;;11.30;99.90;;;;;;4953841;28;20020;-44
2022/05/07 03:41:14;;;;;;;6.15;3.88;;;11.30;99.90;;;;;;4968800;28;20034;-44
2022/05/07 03:43:40;;;;;;;5.50;4.18;;;11.30;99.90;;;;;;4937339;28;20031;-44
2022/05/07 03:46:07;;;;;;;8.35;4.10;;;11.30;99.90;;;;;;4968625;28;20074;-47
2022/05/07 03:48:32;;;;;;;4.45;3.45;;;11.30;99.90;;;;;;4968859;28;20109;-46
2022/05/07 03:50:58;;;;;;;7.35;4.13;;;11.30;99.90;;;;;;4953871;28;20027;-44
2022/05/07 03:53:30;;;;;;;4.50;3.83;;;11.30;99.90;;;;;;4952018;28;20373;-45
2022/05/07 03:56:04;;;;;;;9.10;4.28;;;11.20;99.90;;;;;;4968865;28;20447;-48
2022/05/07 03:58:30;;;;;;;4.68;3.17;;;11.20;99.90;;;;;;4968323;28;20034;-48
2022/05/07 04:00:58;;;;;;;3.75;3.45;;;11.10;99.90;;;;;;4968573;28;20038;-44
2022/05/07 04:03:24;;;;;;;6.63;3.70;;;11.20;99.90;;;;;;4952553;28;20045;-44
2022/05/07 04:05:50;;;;;;;6.13;3.70;;;11.20;99.90;;;;;;4952365;28;20114;-44
2022/05/07 04:08:16;;;;;;;7.18;4.25;;;11.10;99.90;;;;;;4968264;28;20065;-50
2022/05/07 04:10:44;;;;;;;4.43;3.65;;;11.10;99.90;;;;;;4968449;28;20039;-43
2022/05/07 04:13:11;;;;;;;4.47;4.07;;;11.00;99.90;;;;;;4968393;28;20032;-49
2022/05/07 04:15:38;;;;;;;5.32;3.78;;;11.00;99.90;;;;;;4952749;28;20030;-46
2022/05/07 04:18:05;;;;;;;4.47;3.90;;;11.10;99.90;;;;;;4967946;28;20094;-44
2022/05/07 04:20:31;;;;;;;5.13;4.05;;;11.00;99.90;;;;;;4968442;28;20036;-47
2022/05/07 04:22:57;;;;;;;6.18;3.80;;;11.00;99.90;;;;;;4968268;28;20023;-45
2022/05/07 04:25:22;;;;;;;3.75;3.33;;;11.00;99.90;;;;;;4968523;28;20110;-44
2022/05/07 04:27:48;;;;;;;9.43;4.82;;;11.00;99.90;;;;;;4951897;29;20027;-48
2022/05/07 04:30:13;;;;;;;6.82;3.83;;;11.00;99.90;;;;;;4968727;28;20024;-45
2022/05/07 04:32:39;;;;;;;3.88;3.45;;;11.00;99.90;;;;;;4952124;28;20126;-46
2022/05/07 04:35:06;;;;;;;5.78;3.58;;;11.00;99.90;;;;;;4952163;29;20406;-44
2022/05/07 04:37:32;;;;;;;3.42;3.10;;;11.00;99.90;;;;;;4953056;28;20038;-44
2022/05/07 04:39:57;;;;;;;7.65;3.97;;;11.00;99.90;;;;;;4967723;28;20106;-45
2022/05/07 04:42:23;;;;;;;4.53;3.70;;;11.00;99.90;;;;;;4953537;28;20035;-44
2022/05/07 04:44:48;;;;;;;5.97;3.45;;;11.00;99.90;;;;;;4952525;29;20388;-44
2022/05/07 04:47:14;;;;;;;4.40;3.45;;;11.20;99.90;;;;;;4953653;28;20027;-45
2022/05/07 04:49:40;;;;;;;12.63;4.00;;;11.30;99.90;;;;;;4953134;28;20114;-48
2022/05/07 04:52:05;;;;;;;8.48;4.38;;;11.40;99.90;;;;;;4968332;28;20055;-44
2022/05/07 04:54:32;;;;;;;4.38;3.50;;;11.50;99.90;;;;;;4968339;28;20050;-45
2022/05/07 04:56:58;;;;;;;5.20;3.47;;;11.70;99.90;;;;;;4968113;28;20023;-44
2022/05/07 04:59:24;;;;;;;8.98;4.15;;;11.80;99.90;;;;;;4951965;28;20023;-50
2022/05/07 05:01:50;;;;;;;3.70;3.40;;;11.90;99.90;;;;;;4967939;28;20062;-46
2022/05/07 05:04:16;;;;;;;4.97;2.92;;;12.10;99.90;;;;;;4970424;28;20031;-45
2022/05/07 05:06:42;;;;;;;4.65;3.33;;;12.30;99.90;;;;;;4939802;29;20034;-51
2022/05/07 05:09:08;;;;;;;6.30;3.75;;;12.40;99.90;;;;;;4970982;28;20480;-45
2022/05/07 05:11:35;;;;;;;6.18;3.28;;;12.50;99.90;;;;;;4956697;28;20030;-44
2022/05/07 05:14:00;;;;;;;3.70;3.25;;;12.50;99.90;;;;;;4971360;28;20024;-48
2022/05/07 05:16:26;;;;;;;7.68;3.13;;;12.50;99.90;;;;;;4955244;29;20419;-46
2022/05/07 05:18:52;;;;;;;8.18;3.15;;;12.50;99.90;;;;;;4954838;28;20106;-45
2022/05/07 05:21:18;;;;;;;3.63;3.28;;;12.60;99.90;;;;;;4955609;29;20031;-47
2022/05/07 05:23:46;;;;;;;5.90;3.10;;;12.60;99.90;;;;;;4971508;28;20054;-45
2022/05/07 05:26:12;;;;;;;5.47;2.95;;;12.70;99.90;;;;;;4971332;28;20055;-47
2022/05/07 05:28:39;;;;;;;7.78;3.15;;;12.60;99.90;;;;;;4971016;28;20027;-45
2022/05/07 05:31:06;;;;;;;7.85;2.95;;;12.60;99.90;;;;;;4956529;28;20114;-44
2022/05/07 05:33:32;;;;;;;7.38;2.85;;;12.60;99.90;;;;;;4971133;28;20050;-47
2022/05/07 05:35:58;;;;;;;3.67;3.10;;;12.70;99.90;;;;;;4971014;28;20483;-47
2022/05/07 05:38:24;;;;;;;3.75;3.38;;;12.80;99.90;;;;;;4970871;28;20030;-45
2022/05/07 05:40:50;;;;;;;4.38;3.38;;;12.80;99.90;;;;;;4970919;28;20023;-47
2022/05/07 05:43:15;;;;;;;3.78;3.47;;;13.10;99.90;;;;;;4956054;28;20030;-47
2022/05/07 05:45:41;;;;;;;5.32;3.58;;;13.40;99.90;;;;;;4956177;28;20035;-45
2022/05/07 05:48:07;;;;;;;2.97;2.78;;;13.50;99.90;;;;;;4954530;29;20027;-48
2022/05/07 05:50:32;;;;;;;4.85;3.38;;;13.60;99.90;;;;;;4954814;28;20495;-48
2022/05/07 05:52:58;;;;;;;4.55;2.92;;;13.80;99.90;;;;;;4954883;29;20027;-45
2022/05/07 05:55:24;;;;;;;3.47;3.00;;;13.90;99.90;;;;;;4954978;28;20023;-44
2022/05/07 05:57:50;;;;;;;3.80;2.90;;;14.10;99.90;;;;;;4938669;29;20020;-45
2022/05/07 06:00:16;;;;;;;4.40;3.03;;;14.30;99.90;;;;;;4955876;28;20024;-45
2022/05/07 06:02:45;;;;;;;4.50;3.90;;;14.20;99.90;;;;;;4955095;29;20451;-45
2022/05/07 06:05:12;;;;;;;5.70;3.88;;;14.20;99.90;;;;;;4971540;28;20027;-44
2022/05/07 06:07:38;;;;;;;4.93;3.30;;;14.20;99.90;;;;;;4970726;28;20487;-46
2022/05/07 06:10:05;;;;;;;4.50;3.60;;;14.20;99.90;;;;;;4970462;28;20049;-49
2022/05/07 06:12:31;;;;;;;5.43;3.38;;;14.20;99.90;;;;;;4970446;28;20034;-46
2022/05/07 06:14:57;;;;;;;5.18;3.13;;;14.30;99.90;;;;;;4952048;28;20122;-44
2022/05/07 06:17:23;;;;;;;9.50;3.40;;;14.30;99.90;;;;;;4949415;28;20024;-47
2022/05/07 06:19:49;;;;;;;3.40;3.10;;;14.20;99.90;;;;;;4955346;28;20534;-46
2022/05/07 06:22:15;;;;;;;4.00;3.33;;;14.20;99.90;;;;;;4967193;28;20388;-47
2022/05/07 06:27:28;;;;;;;6.40;3.20;;;14.20;99.90;;;;;;4954761;29;20232;-45
2022/05/07 06:29:54;;;;;;;4.85;3.13;;;14.30;99.90;;;;;;4954187;28;20027;-46
2022/05/07 06:32:19;;;;;;;3.83;3.15;;;14.40;99.90;;;;;;4969533;28;20038;-48
2022/05/07 06:34:45;;;;;;;4.15;3.38;;;14.60;99.90;;;;;;4969602;28;20031;-45
2022/05/07 06:37:11;;;;;;;3.50;3.13;;;14.70;99.90;;;;;;4963451;28;20028;-49
2022/05/07 06:39:37;;;;;;;4.43;3.30;;;14.80;99.90;;;;;;4950779;29;20019;-48
2022/05/07 06:42:04;;;;;;;5.03;3.22;;;15.10;99.90;;;;;;4962789;28;20122;-51
2022/05/07 06:44:29;;;;;;;5.60;3.03;;;15.40;99.90;;;;;;4969132;28;20031;-48
2022/05/07 06:46:56;;;;;;;6.97;3.13;;;15.70;99.90;;;;;;4954330;28;20074;-45
2022/05/07 06:49:22;;;;;;;2.92;2.72;;;16.00;99.80;;;;;;4954603;28;20155;-45
2022/05/07 06:51:48;;;;;;;3.67;3.28;;;16.00;99.60;;;;;;4955161;28;20121;-45
2022/05/07 06:54:13;;;;;;;7.00;3.20;;;16.10;99.70;;;;;;4951581;28;20023;-50
2022/05/07 06:56:39;;;;;;;4.03;2.58;;;16.20;99.50;;;;;;4954911;28;20507;-46
2022/05/07 06:59:05;;;;;;;3.92;2.80;;;16.40;98.90;;;;;;4968650;28;20041;-54
2022/05/07 07:01:31;;;;;;;2.97;2.72;;;16.50;98.60;;;;;;4954438;28;20039;-44
2022/05/07 07:03:57;;;;;;;7.22;2.95;;;16.50;98.60;;;;;;4954000;28;20463;-43
2022/05/07 07:06:22;;;;;;;5.55;3.17;;;16.60;98.80;;;;;;4953089;28;20031;-46
2022/05/07 07:08:48;;;;;;;4.18;3.05;;;16.80;98.50;;;;;;4952964;28;20261;-50
2022/05/07 07:11:14;;;;;;;4.95;2.60;;;16.90;98.60;;;;;;4874575;23;20117;-43
2022/05/07 07:13:41;;;;;;;3.20;2.60;;;16.90;98.40;;;;;;4840348;29;20022;-42
2022/05/07 07:16:06;;;;;;;5.97;2.92;;;17.00;98.70;;;;;;4839016;29;20030;-41
2022/05/07 07:18:32;;;;;;;6.90;2.90;;;17.20;98.20;;;;;;4839587;29;20097;-42
2022/05/07 07:20:57;;;;;;;4.93;3.42;;;17.50;98.10;;;;;;4838739;29;20078;-39
2022/05/07 07:23:23;;;;;;;6.25;2.85;;;17.70;97.60;;;;;;4838576;29;20081;-44
2022/05/07 07:25:48;;;;;;;11.30;3.72;;;17.50;97.60;;;;;;4838442;29;20541;-41
2022/05/07 07:28:14;;;;;;;5.03;3.13;;;17.70;97.70;;;;;;4837309;29;20513;-42
2022/05/07 07:30:40;;;;;;;6.75;3.28;;;17.70;97.30;;;;;;4837687;29;20398;-41
2022/05/07 07:33:07;;;;;;;3.75;3.45;;;17.70;97.60;;;;;;4852772;29;20406;-42
2022/05/07 07:35:33;;;;;;;5.45;3.40;;;17.60;97.90;;;;;;4837466;29;20029;-41
2022/05/07 07:37:58;;;;;;;6.72;3.33;;;17.50;97.70;;;;;;4838464;29;20027;-46
2022/05/07 07:40:24;;;;;;;4.93;3.53;;;17.60;97.90;;;;;;4837260;29;20367;-41
2022/05/07 07:42:49;;;;;;;6.85;3.33;;;17.70;97.70;;;;;;4837541;29;20030;-42
2022/05/07 07:48:00;;;;;;;5.13;3.17;;;18.00;97.20;;;;;;4838517;29;20040;-41
2022/05/07 07:50:34;;;;;;;5.82;3.00;;;18.30;96.70;;;;;;4837155;29;20387;-43
2022/05/07 07:53:05;;;;;;;6.93;3.10;;;18.80;95.90;;;;;;4837243;29;20034;-41
2022/05/07 07:55:31;;;;;;;5.95;2.42;;;19.30;95.40;;;;;;4838483;29;20030;-40
2022/05/07 07:57:59;;;;;;;2.60;2.40;;;20.00;94.30;;;;;;4838131;29;20052;-41
2022/05/07 08:00:26;;;;;;;3.22;2.58;;;20.80;93.20;;;;;;4838360;29;20061;-42
2022/05/07 08:02:57;;;;;;;3.70;2.67;;;21.30;92.00;;;;;;4852670;29;20034;-40
2022/05/07 08:05:26;;;;;;;5.35;2.30;;;22.30;90.80;;;;;;4837032;29;20026;-41
2022/05/07 08:13:40;;;;;;;5.93;2.30;;;24.60;80.60;;;;;;4817731;29;20305;-44
2022/05/07 08:16:09;;;;;;;3.50;2.30;;;24.90;80.50;;;;;;4833460;29;20062;-42
2022/05/07 08:18:35;;;;;;;3.65;2.33;;;26.00;78.80;;;;;;4852017;29;20022;-41
2022/05/07 08:21:02;;;;;;;3.35;2.25;;;26.80;75.00;;;;;;4837613;29;20026;-45
2022/05/07 08:23:28;;;;;;;1.50;1.40;;;27.20;72.10;;;;;;4836878;29;20079;-44
2022/05/07 08:25:54;;;;;;;5.90;1.98;;;27.70;70.20;;;;;;4838198;29;20045;-40
2022/05/07 08:28:21;;;;;;;7.15;2.10;;;27.50;65.80;;;;;;4851736;29;20030;-46
2022/05/07 08:30:49;;;;;;;4.07;2.00;;;27.50;66.90;;;;;;4837879;29;20022;-45
2022/05/07 08:33:17;;;;;;;3.05;1.60;;;27.20;66.30;;;;;;4851866;29;20434;-43
2022/05/07 08:35:43;;;;;;;3.95;1.50;;;27.60;66.40;;;;;;4836858;29;20482;-42
2022/05/07 08:38:09;;;;;;;4.80;1.83;;;27.30;67.10;;;;;;4837024;29;20041;-42
2022/05/07 08:40:34;;;;;;;2.25;1.88;;;27.20;65.60;;;;;;4841412;29;20026;-42
2022/05/07 08:43:02;;;;;;;2.97;2.58;;;27.20;65.90;;;;;;4840020;29;20034;-42
2022/05/07 08:45:27;;;;;;;2.75;2.00;;;26.90;65.30;;;;;;4855280;29;20065;-42
2022/05/07 08:47:53;;;;;;;2.55;1.80;;;27.00;65.90;;;;;;4839353;29;20030;-42
2022/05/07 08:50:20;;;;;;;2.28;1.80;;;26.90;66.40;;;;;;4841015;29;20056;-44
2022/05/07 08:52:47;;;;;;;7.88;1.85;;;27.00;66.40;;;;;;4855329;29;20092;-43
2022/05/07 08:55:14;;;;;;;2.55;1.70;;;26.80;67.00;;;;;;4839927;29;20056;-43
2022/05/07 08:57:41;;;;;;;4.63;1.85;;;26.40;64.40;;;;;;4838940;29;20026;-42
2022/05/07 09:00:11;;;;;;;4.68;1.83;;;26.00;64.50;;;;;;4919618;29;20057;-43
2022/05/07 09:02:42;;;;;;;5.13;2.15;;;25.60;66.00;;;;;;4838361;29;20104;-43
2022/05/07 09:05:10;;;;;;;7.78;2.13;;;25.40;67.40;;;;;;4852484;29;20494;-43
2022/05/07 09:07:36;;;;;;;2.78;1.70;;;25.20;65.40;;;;;;4839662;29;20033;-43
2022/05/07 09:10:03;;;;;;;4.38;1.83;;;25.10;65.90;;;;;;4919285;29;20716;-42
2022/05/07 09:12:29;;;;;;;3.13;1.70;;;25.20;66.50;;;;;;4840743;29;20057;-47
2022/05/07 09:15:15;;;;;;;3.08;1.50;;;25.00;64.30;;;;;;4840898;29;20018;-46
2022/05/07 09:17:46;;;;;;;3.38;1.80;;;25.00;64.60;;;;;;4840054;29;20486;-43
2022/05/07 09:20:16;;;;;;;2.80;1.42;;;24.90;66.10;;;;;;4840175;29;20026;-51
2022/05/07 09:22:49;;;;;;;1.80;1.40;;;24.70;64.60;;;;;;4854520;29;20038;-48
2022/05/07 09:25:21;;;;;;;2.15;1.40;;;24.90;65.40;;;;;;4840754;29;20029;-49
2022/05/07 09:27:47;;;;;;;39.88;31.58;;;25.00;64.40;;;;;;4840236;29;20040;-44
2022/05/07 09:30:19;;;;;;;16.33;10.25;;;25.20;63.90;;;;;;4840440;29;20576;-47
2022/05/07 09:32:49;;;;;;;3.60;1.92;;;25.30;63.00;;;;;;4840390;29;20363;-45
2022/05/07 09:38:01;;;;;;;4.57;1.58;;;25.00;60.10;;;;;;4824109;29;20086;-42
2022/05/07 09:43:53;;;;;;;2.90;1.60;;;24.60;61.00;;;;;;4841746;29;20096;-46
2022/05/07 09:46:19;;;;;;;5.82;1.50;;;24.40;63.10;;;;;;4840448;29;20117;-49
2022/05/07 09:48:46;;;;;;;3.90;1.10;;;24.30;61.50;;;;;;4918855;29;20034;-47
2022/05/07 09:51:12;;;;;;;3.35;1.23;;;24.10;58.80;;;;;;4839135;29;20081;-50
2022/05/07 09:59:06;;;;;;;1.67;1.27;;;23.60;62.50;;;;;;4823571;29;20110;-49
2022/05/07 10:01:51;;;;;;;1.60;1.50;;;23.40;62.90;;;;;;4821698;29;20494;-44
2022/05/07 10:04:28;;;;;;;4.82;1.90;;;23.20;64.20;;;;;;4890082;29;20041;-43
2022/05/07 10:07:27;;;;;;;3.95;1.80;;;23.10;64.60;;;;;;4820350;29;20045;-44
2022/05/07 10:10:15;;;;;;;3.05;1.52;;;23.20;65.20;;;;;;4910278;29;20401;-43
2022/05/07 10:12:45;;;;;;;3.83;2.28;;;23.20;64.50;;;;;;4831039;29;20026;-44
2022/05/07 10:15:14;;;;;;;2.60;1.60;;;23.00;64.30;;;;;;4840146;29;20030;-45
2022/05/07 10:17:40;;;;;;;2.78;1.40;;;22.90;65.00;;;;;;4823118;29;20093;-47
2022/05/07 10:20:09;;;;;;;2.95;1.50;;;22.90;65.20;;;;;;4849782;29;20035;-43
2022/05/07 10:22:35;;;;;;;4.43;1.70;;;23.00;64.70;;;;;;4915716;29;20916;-44
2022/05/07 10:25:11;;;;;;;7.93;1.30;;;23.10;65.30;;;;;;4837965;29;20070;-44
2022/05/07 10:27:44;;;;;;;4.15;1.52;;;23.30;66.20;;;;;;4821712;29;20537;-44
2022/05/07 10:30:20;;;;;;;3.45;1.58;;;23.30;64.90;;;;;;4849389;29;20129;-44
2022/05/07 10:32:58;;;;;;;4.82;1.75;;;23.40;63.50;;;;;;4853705;29;20030;-47
2022/05/07 10:35:45;;;;;;;1.65;1.23;;;23.50;65.00;;;;;;4839421;29;20446;-42
2022/05/07 10:38:26;;;;;;;11.30;7.63;;;23.40;63.40;;;;;;4838129;29;20026;-44
2022/05/07 10:40:53;;;;;;;4.78;2.15;;;23.30;64.60;;;;;;4850827;29;20050;-46
2022/05/07 10:43:29;;;;;;;3.35;1.70;;;23.10;63.60;;;;;;4835235;29;20054;-42
2022/05/07 10:46:00;;;;;;;4.93;2.05;;;23.00;64.30;;;;;;4835043;29;20089;-43
2022/05/07 10:48:25;;;;;;;4.55;1.70;;;23.00;63.90;;;;;;4834979;29;20023;-45
2022/05/07 10:50:52;;;;;;;3.05;2.03;;;23.00;64.20;;;;;;4821134;29;20034;-48
2022/05/07 10:53:19;;;;;;;2.92;1.58;;;23.00;63.80;;;;;;4821335;29;20022;-43
2022/05/07 10:55:45;;;;;;;3.60;1.70;;;23.00;65.20;;;;;;4834621;29;20204;-45
2022/05/07 10:58:10;;;;;;;3.03;1.73;;;22.90;62.30;;;;;;4834550;29;20110;-43
2022/05/07 11:00:36;;;;;;;3.03;1.58;;;22.60;63.10;;;;;;4899498;29;20526;-45
2022/05/07 11:03:02;;;;;;;3.20;1.65;;;22.60;63.60;;;;;;4834867;29;20038;-42
2022/05/07 11:05:31;;;;;;;8.57;2.05;;;22.70;65.10;;;;;;4898911;29;20033;-44
2022/05/07 11:08:02;;;;;;;6.40;2.13;;;22.80;63.00;;;;;;4834243;29;20407;-45
2022/05/07 11:10:28;;;;;;;3.28;2.28;;;22.70;63.40;;;;;;4820788;29;20415;-44
2022/05/07 11:13:14;;;;;;;3.25;2.00;;;22.80;63.00;;;;;;4834765;29;20034;-44
2022/05/07 11:15:41;;;;;;;4.72;2.83;;;22.70;62.70;;;;;;4834662;29;20031;-44
2022/05/07 11:18:14;;;;;;;3.35;2.05;;;22.50;62.90;;;;;;4843028;29;20026;-45
2022/05/07 11:20:41;;;;;;;3.05;1.80;;;22.20;63.90;;;;;;4853179;29;20022;-44
2022/05/07 11:23:11;;;;;;;3.25;2.35;;;22.00;63.80;;;;;;4853310;29;20037;-43
2022/05/07 11:25:37;;;;;;;5.72;2.28;;;21.70;65.20;;;;;;4853097;29;20060;-45
2022/05/07 11:28:02;;;;;;;5.70;2.17;;;21.80;64.70;;;;;;4852629;29;20402;-44
2022/05/07 11:30:28;;;;;;;4.38;2.17;;;21.70;65.00;;;;;;4853018;29;20113;-45
2022/05/07 11:32:55;;;;;;;2.53;2.10;;;21.70;65.50;;;;;;4853343;29;20022;-46
2022/05/07 11:35:24;;;;;;;5.45;1.88;;;21.60;65.40;;;;;;4853858;29;20417;-42
2022/05/07 11:37:49;;;;;;;7.05;2.08;;;21.60;66.10;;;;;;4853014;29;20030;-44
2022/05/07 11:40:27;;;;;;;2.95;2.58;;;21.60;65.30;;;;;;4853049;29;20026;-43
2022/05/07 11:45:25;;;;;;;5.63;3.20;;;21.70;64.10;;;;;;4853420;29;20034;-48
2022/05/07 11:45:38;;;;;;;;;;;21.70;65.60;;;;;;4839047;29;20045;-44
2022/05/07 11:48:09;;;;;;;9.95;2.35;;;21.90;63.40;;;;;;4852537;29;19912;-46
2022/05/07 11:50:43;;;;;;;3.25;2.20;;;22.00;63.70;;;;;;4837391;29;20045;-44
2022/05/07 11:53:16;;;;;;;12.30;7.55;;;22.10;63.80;;;;;;4853649;29;20033;-45
2022/05/07 11:55:43;;;;;;;7.38;5.40;;;22.20;62.80;;;;;;4854315;29;20034;-48
2022/05/07 11:58:20;;;;;;;5.10;4.50;;;22.20;62.80;;;;;;4853912;29;20117;-50
2022/05/07 12:00:48;;;;;;;3.65;2.33;;;22.30;63.10;;;;;;4853236;29;20114;-46
2022/05/07 12:03:24;;;;;;;7.15;2.25;;;22.40;64.70;;;;;;4853379;29;20394;-46
2022/05/07 12:05:57;;;;;;;2.55;1.90;;;22.40;64.00;;;;;;4838763;29;20030;-44
2022/05/07 12:08:29;;;;;;;3.08;2.10;;;22.40;63.70;;;;;;4848834;29;20096;-44
2022/05/07 12:10:55;;;;;;;4.55;1.90;;;22.20;63.40;;;;;;4913229;29;20034;-45
2022/05/07 12:13:24;;;;;;;5.90;2.40;;;22.30;65.40;;;;;;4851347;29;20038;-44
2022/05/07 12:18:36;;;;;;;3.63;2.92;;;22.40;65.20;;;;;;4838871;29;20414;-48
2022/05/07 12:21:02;;;;;;;4.60;2.53;;;22.50;63.10;;;;;;4852641;29;20124;-46
2022/05/07 12:31:39;;;;;;;4.80;2.25;;;22.50;64.60;;;;;;4838113;29;20085;-47
2022/05/07 12:34:05;;;;;;;3.25;1.77;;;22.60;63.10;;;;;;4836883;29;20442;-46
2022/05/07 12:36:32;;;;;;;3.20;2.28;;;22.60;63.40;;;;;;4834312;29;20568;-47
2022/05/07 12:39:00;;;;;;;3.22;2.10;;;22.50;63.20;;;;;;4838095;29;20022;-50
2022/05/07 12:41:27;;;;;;;4.15;2.80;;;22.40;63.60;;;;;;4822557;29;20053;-46
2022/05/07 12:43:57;;;;;;;2.58;2.38;;;22.20;62.30;;;;;;4838067;29;20030;-47
2022/05/07 12:46:24;;;;;;;7.93;2.35;;;22.20;63.50;;;;;;4836801;29;20030;-46
2022/05/07 12:48:50;;;;;;;5.03;2.10;;;22.20;62.30;;;;;;4851212;29;20046;-44
2022/05/07 12:51:16;;;;;;;3.70;1.98;;;22.30;63.80;;;;;;4851836;29;20030;-44
2022/05/07 12:53:42;;;;;;;4.72;2.22;;;22.30;63.90;;;;;;4836562;29;20049;-48
2022/05/07 12:56:08;;;;;;;2.90;2.28;;;22.40;64.90;;;;;;4851904;29;20129;-45
2022/05/07 12:58:34;;;;;;;5.45;3.05;;;22.60;63.20;;;;;;4838139;29;20052;-45
2022/05/07 13:01:00;;;;;;;5.38;2.65;;;22.70;61.60;;;;;;4852160;29;20410;-45
2022/05/07 13:03:26;;;;;;;3.55;2.92;;;22.60;62.70;;;;;;4837848;29;20032;-44
2022/05/07 13:05:52;;;;;;;2.30;2.10;;;22.70;61.70;;;;;;4852187;29;20022;-48
2022/05/07 13:08:17;;;;;;;8.63;2.22;;;22.50;62.20;;;;;;4836181;29;20022;-44
2022/05/07 13:10:43;;;;;;;2.35;1.83;;;22.60;61.70;;;;;;4851865;29;20034;-47
2022/05/07 13:13:10;;;;;;;3.88;2.50;;;22.60;62.00;;;;;;4851555;29;20034;-47
2022/05/07 13:15:36;;;;;;;12.07;2.03;;;22.60;62.30;;;;;;4852812;29;20030;-45
2022/05/07 13:18:02;;;;;;;4.30;2.95;;;22.50;62.90;;;;;;4837429;29;20564;-45
2022/05/07 13:20:28;;;;;;;43.13;28.27;;;22.40;61.30;;;;;;4851818;29;20060;-46
2022/05/07 13:22:54;;;;;;;2.58;2.03;;;22.50;63.90;;;;;;4851617;29;20064;-44
2022/05/07 13:25:22;;;;;;;2.60;1.92;;;22.50;63.80;;;;;;4853948;29;20034;-52